sensor_id;sensor_type;location;lat;lon;timestamp;temperature;humidity
57026;DHT22;43961;52.940;6.834;2023-04-03T00:00:40;1.30;99.90
57026;DHT22;43961;52.940;6.834;2023-04-03T00:03:06;1.30;99.90
57026;DHT22;43961;52.940;6.834;2023-04-03T00:05:32;1.30;99.90
57026;DHT22;43961;52.940;6.834;2023-04-03T00:07:58;1.30;99.90
57026;DHT22;43961;52.940;6.834;2023-04-03T00:10:24;1.30;99.90
57026;DHT22;43961;52.940;6.834;2023-04-03T00:12:49;1.30;99.90
57026;DHT22;43961;52.940;6.834;2023-04-03T00:15:15;1.20;99.90
57026;DHT22;43961;52.940;6.834;2023-04-03T00:17:41;1.20;99.90
57026;DHT22;43961;52.940;6.834;2023-04-03T00:20:07;1.20;99.90
57026;DHT22;43961;52.940;6.834;2023-04-03T00:22:33;1.20;99.90
57026;DHT22;43961;52.940;6.834;2023-04-03T00:24:58;1.20;99.90
57026;DHT22;43961;52.940;6.834;2023-04-03T00:27:24;1.20;99.90
57026;DHT22;43961;52.940;6.834;2023-04-03T00:29:50;1.10;99.90
57026;DHT22;43961;52.940;6.834;2023-04-03T00:32:16;1.10;99.90
57026;DHT22;43961;52.940;6.834;2023-04-03T00:34:41;1.10;99.90
57026;DHT22;43961;52.940;6.834;2023-04-03T00:37:07;1.10;99.90
57026;DHT22;43961;52.940;6.834;2023-04-03T00:39:32;1.00;99.90
57026;DHT22;43961;52.940;6.834;2023-04-03T00:41:58;1.00;99.90
57026;DHT22;43961;52.940;6.834;2023-04-03T00:46:59;0.90;99.90
57026;DHT22;43961;52.940;6.834;2023-04-03T00:49:26;0.90;99.90
57026;DHT22;43961;52.940;6.834;2023-04-03T00:51:52;0.90;99.90
57026;DHT22;43961;52.940;6.834;2023-04-03T00:54:18;0.90;99.90
57026;DHT22;43961;52.940;6.834;2023-04-03T00:56:44;0.80;99.90
57026;DHT22;43961;52.940;6.834;2023-04-03T00:59:14;0.80;99.90
57026;DHT22;43961;52.940;6.834;2023-04-03T01:01:40;0.80;99.90
57026;DHT22;43961;52.940;6.834;2023-04-03T01:04:30;0.70;99.90
57026;DHT22;43961;52.940;6.834;2023-04-03T01:06:59;0.70;99.90
57026;DHT22;43961;52.940;6.834;2023-04-03T01:09:26;0.70;99.90
57026;DHT22;43961;52.940;6.834;2023-04-03T01:11:53;0.70;99.90
57026;DHT22;43961;52.940;6.834;2023-04-03T01:14:19;0.70;99.90
57026;DHT22;43961;52.940;6.834;2023-04-03T01:16:54;0.60;99.90
57026;DHT22;43961;52.940;6.834;2023-04-03T01:19:22;0.70;99.90
57026;DHT22;43961;52.940;6.834;2023-04-03T01:21:54;0.60;99.90
57026;DHT22;43961;52.940;6.834;2023-04-03T01:24:33;0.60;99.90
57026;DHT22;43961;52.940;6.834;2023-04-03T01:27:01;0.60;99.90
57026;DHT22;43961;52.940;6.834;2023-04-03T01:29:28;0.50;99.90
57026;DHT22;43961;52.940;6.834;2023-04-03T01:31:56;0.50;99.90
57026;DHT22;43961;52.940;6.834;2023-04-03T01:34:23;0.50;99.90
57026;DHT22;43961;52.940;6.834;2023-04-03T01:36:49;0.40;99.90
57026;DHT22;43961;52.940;6.834;2023-04-03T01:39:16;0.40;99.90
57026;DHT22;43961;52.940;6.834;2023-04-03T01:41:42;0.40;99.90
57026;DHT22;43961;52.940;6.834;2023-04-03T01:44:08;0.30;99.90
57026;DHT22;43961;52.940;6.834;2023-04-03T01:46:34;0.30;99.90
57026;DHT22;43961;52.940;6.834;2023-04-03T01:49:01;0.30;99.90
57026;DHT22;43961;52.940;6.834;2023-04-03T01:51:27;0.30;99.90
57026;DHT22;43961;52.940;6.834;2023-04-03T01:53:52;0.30;99.90
57026;DHT22;43961;52.940;6.834;2023-04-03T01:56:18;0.30;99.90
57026;DHT22;43961;52.940;6.834;2023-04-03T01:58:44;0.30;99.90
57026;DHT22;43961;52.940;6.834;2023-04-03T02:01:09;0.30;99.90
57026;DHT22;43961;52.940;6.834;2023-04-03T02:03:35;0.30;99.90
57026;DHT22;43961;52.940;6.834;2023-04-03T02:06:01;0.30;99.90
57026;DHT22;43961;52.940;6.834;2023-04-03T02:08:26;0.30;99.90
57026;DHT22;43961;52.940;6.834;2023-04-03T02:10:52;0.30;99.90
57026;DHT22;43961;52.940;6.834;2023-04-03T02:13:18;0.30;99.90
57026;DHT22;43961;52.940;6.834;2023-04-03T02:15:44;0.20;99.90
57026;DHT22;43961;52.940;6.834;2023-04-03T02:18:11;0.20;99.90
57026;DHT22;43961;52.940;6.834;2023-04-03T02:20:37;0.30;99.90
57026;DHT22;43961;52.940;6.834;2023-04-03T02:23:03;0.20;99.90
57026;DHT22;43961;52.940;6.834;2023-04-03T02:25:30;0.30;99.90
57026;DHT22;43961;52.940;6.834;2023-04-03T02:27:56;0.30;99.90
57026;DHT22;43961;52.940;6.834;2023-04-03T02:30:22;0.30;99.90
57026;DHT22;43961;52.940;6.834;2023-04-03T02:32:48;0.30;99.90
57026;DHT22;43961;52.940;6.834;2023-04-03T02:35:13;0.30;99.90
57026;DHT22;43961;52.940;6.834;2023-04-03T02:37:39;0.30;99.90
57026;DHT22;43961;52.940;6.834;2023-04-03T02:40:05;0.30;99.90
57026;DHT22;43961;52.940;6.834;2023-04-03T02:42:32;0.30;99.90
57026;DHT22;43961;52.940;6.834;2023-04-03T02:44:57;0.30;99.90
57026;DHT22;43961;52.940;6.834;2023-04-03T02:47:23;0.30;99.90
57026;DHT22;43961;52.940;6.834;2023-04-03T02:49:49;0.30;99.90
57026;DHT22;43961;52.940;6.834;2023-04-03T02:52:14;0.30;99.90
57026;DHT22;43961;52.940;6.834;2023-04-03T02:54:41;0.40;99.90
57026;DHT22;43961;52.940;6.834;2023-04-03T02:57:07;0.40;99.90
57026;DHT22;43961;52.940;6.834;2023-04-03T02:59:36;0.40;99.90
57026;DHT22;43961;52.940;6.834;2023-04-03T03:02:01;0.40;99.90
57026;DHT22;43961;52.940;6.834;2023-04-03T03:04:27;0.40;99.90
57026;DHT22;43961;52.940;6.834;2023-04-03T03:06:53;0.40;99.90
57026;DHT22;43961;52.940;6.834;2023-04-03T03:09:18;0.30;99.90
57026;DHT22;43961;52.940;6.834;2023-04-03T03:11:44;0.30;99.90
57026;DHT22;43961;52.940;6.834;2023-04-03T03:14:12;0.30;99.90
57026;DHT22;43961;52.940;6.834;2023-04-03T03:16:38;0.30;99.90
57026;DHT22;43961;52.940;6.834;2023-04-03T03:19:05;0.20;99.90
57026;DHT22;43961;52.940;6.834;2023-04-03T03:21:33;0.20;99.90
57026;DHT22;43961;52.940;6.834;2023-04-03T03:23:58;0.10;99.90
57026;DHT22;43961;52.940;6.834;2023-04-03T03:26:24;0.10;99.90
57026;DHT22;43961;52.940;6.834;2023-04-03T03:28:50;0.10;99.90
57026;DHT22;43961;52.940;6.834;2023-04-03T03:31:16;0.10;99.90
57026;DHT22;43961;52.940;6.834;2023-04-03T03:33:41;0.00;99.90
57026;DHT22;43961;52.940;6.834;2023-04-03T03:36:07;-0.10;99.90
57026;DHT22;43961;52.940;6.834;2023-04-03T03:38:33;-0.20;99.90
57026;DHT22;43961;52.940;6.834;2023-04-03T03:40:59;-0.30;99.90
57026;DHT22;43961;52.940;6.834;2023-04-03T03:43:25;-0.30;99.90
57026;DHT22;43961;52.940;6.834;2023-04-03T03:45:51;-0.40;99.90
57026;DHT22;43961;52.940;6.834;2023-04-03T03:48:18;-0.40;99.90
57026;DHT22;43961;52.940;6.834;2023-04-03T03:50:44;-0.40;99.90
57026;DHT22;43961;52.940;6.834;2023-04-03T03:53:09;-0.40;99.90
57026;DHT22;43961;52.940;6.834;2023-04-03T03:55:35;-0.40;99.90
57026;DHT22;43961;52.940;6.834;2023-04-03T03:58:01;-0.40;99.90
57026;DHT22;43961;52.940;6.834;2023-04-03T04:00:27;-0.40;99.90
57026;DHT22;43961;52.940;6.834;2023-04-03T04:02:53;-0.50;99.90
57026;DHT22;43961;52.940;6.834;2023-04-03T04:05:19;-0.50;99.90
57026;DHT22;43961;52.940;6.834;2023-04-03T04:07:45;-0.50;99.90
57026;DHT22;43961;52.940;6.834;2023-04-03T04:10:11;-0.50;99.90
57026;DHT22;43961;52.940;6.834;2023-04-03T04:12:37;-0.50;99.90
57026;DHT22;43961;52.940;6.834;2023-04-03T04:15:03;-0.50;99.90
57026;DHT22;43961;52.940;6.834;2023-04-03T04:17:29;-0.50;99.90
57026;DHT22;43961;52.940;6.834;2023-04-03T04:19:55;-0.50;99.90
57026;DHT22;43961;52.940;6.834;2023-04-03T04:22:20;-0.50;99.90
57026;DHT22;43961;52.940;6.834;2023-04-03T04:24:46;-0.50;99.90
57026;DHT22;43961;52.940;6.834;2023-04-03T04:27:12;-0.50;99.90
57026;DHT22;43961;52.940;6.834;2023-04-03T04:29:37;-0.50;99.90
57026;DHT22;43961;52.940;6.834;2023-04-03T04:32:03;-0.50;99.90
57026;DHT22;43961;52.940;6.834;2023-04-03T04:34:29;-0.60;99.90
57026;DHT22;43961;52.940;6.834;2023-04-03T04:36:55;-0.50;99.90
57026;DHT22;43961;52.940;6.834;2023-04-03T04:39:21;-0.50;99.90
57026;DHT22;43961;52.940;6.834;2023-04-03T04:41:47;-0.50;99.90
57026;DHT22;43961;52.940;6.834;2023-04-03T04:44:13;-0.60;99.90
57026;DHT22;43961;52.940;6.834;2023-04-03T04:46:39;-0.50;99.90
57026;DHT22;43961;52.940;6.834;2023-04-03T04:49:04;-0.60;99.90
57026;DHT22;43961;52.940;6.834;2023-04-03T04:51:31;-0.60;99.90
57026;DHT22;43961;52.940;6.834;2023-04-03T04:53:56;-0.50;99.90
57026;DHT22;43961;52.940;6.834;2023-04-03T04:56:22;-0.50;99.90
57026;DHT22;43961;52.940;6.834;2023-04-03T04:58:48;-0.50;99.90
57026;DHT22;43961;52.940;6.834;2023-04-03T05:01:13;-0.50;99.90
57026;DHT22;43961;52.940;6.834;2023-04-03T05:03:39;-0.50;99.90
57026;DHT22;43961;52.940;6.834;2023-04-03T05:06:05;-0.50;99.90
57026;DHT22;43961;52.940;6.834;2023-04-03T05:08:31;-0.50;99.90
57026;DHT22;43961;52.940;6.834;2023-04-03T05:10:57;-0.40;99.90
57026;DHT22;43961;52.940;6.834;2023-04-03T05:13:22;-0.30;99.90
57026;DHT22;43961;52.940;6.834;2023-04-03T05:15:48;0.00;99.90
57026;DHT22;43961;52.940;6.834;2023-04-03T05:18:14;0.30;99.90
57026;DHT22;43961;52.940;6.834;2023-04-03T05:20:40;0.60;99.90
57026;DHT22;43961;52.940;6.834;2023-04-03T05:23:06;1.00;99.90
57026;DHT22;43961;52.940;6.834;2023-04-03T05:25:32;1.30;99.90
57026;DHT22;43961;52.940;6.834;2023-04-03T05:27:58;1.80;99.90
57026;DHT22;43961;52.940;6.834;2023-04-03T05:30:24;2.30;99.90
57026;DHT22;43961;52.940;6.834;2023-04-03T05:32:50;2.80;99.90
57026;DHT22;43961;52.940;6.834;2023-04-03T05:35:15;3.40;99.90
57026;DHT22;43961;52.940;6.834;2023-04-03T05:37:41;3.80;99.90
57026;DHT22;43961;52.940;6.834;2023-04-03T05:40:08;4.10;99.90
57026;DHT22;43961;52.940;6.834;2023-04-03T05:42:34;3.70;99.90
57026;DHT22;43961;52.940;6.834;2023-04-03T05:45:01;3.30;99.90
57026;DHT22;43961;52.940;6.834;2023-04-03T05:47:26;3.10;99.90
57026;DHT22;43961;52.940;6.834;2023-04-03T05:49:52;3.60;99.90
57026;DHT22;43961;52.940;6.834;2023-04-03T05:52:22;4.50;99.90
57026;DHT22;43961;52.940;6.834;2023-04-03T05:54:49;5.40;99.90
57026;DHT22;43961;52.940;6.834;2023-04-03T05:57:15;6.10;99.90
57026;DHT22;43961;52.940;6.834;2023-04-03T05:59:42;6.40;99.90
57026;DHT22;43961;52.940;6.834;2023-04-03T06:02:11;6.30;99.90
57026;DHT22;43961;52.940;6.834;2023-04-03T06:04:38;6.00;99.90
57026;DHT22;43961;52.940;6.834;2023-04-03T06:07:04;5.30;99.90
57026;DHT22;43961;52.940;6.834;2023-04-03T06:09:30;4.70;99.90
57026;DHT22;43961;52.940;6.834;2023-04-03T06:11:57;4.70;99.90
57026;DHT22;43961;52.940;6.834;2023-04-03T06:14:26;4.80;99.90
57026;DHT22;43961;52.940;6.834;2023-04-03T06:16:52;4.50;99.90
57026;DHT22;43961;52.940;6.834;2023-04-03T06:19:19;3.90;99.90
57026;DHT22;43961;52.940;6.834;2023-04-03T06:21:45;3.40;99.90
57026;DHT22;43961;52.940;6.834;2023-04-03T06:24:14;3.10;99.90
57026;DHT22;43961;52.940;6.834;2023-04-03T06:26:40;2.90;99.90
57026;DHT22;43961;52.940;6.834;2023-04-03T06:29:06;2.70;99.90
57026;DHT22;43961;52.940;6.834;2023-04-03T06:31:32;2.60;99.90
57026;DHT22;43961;52.940;6.834;2023-04-03T06:33:58;2.50;99.90
57026;DHT22;43961;52.940;6.834;2023-04-03T06:36:24;2.40;99.90
57026;DHT22;43961;52.940;6.834;2023-04-03T06:38:51;2.50;99.90
57026;DHT22;43961;52.940;6.834;2023-04-03T06:41:16;2.60;99.90
57026;DHT22;43961;52.940;6.834;2023-04-03T06:43:43;2.90;99.90
57026;DHT22;43961;52.940;6.834;2023-04-03T06:46:17;3.30;99.90
57026;DHT22;43961;52.940;6.834;2023-04-03T06:48:44;3.20;99.90
57026;DHT22;43961;52.940;6.834;2023-04-03T06:51:30;3.00;99.90
57026;DHT22;43961;52.940;6.834;2023-04-03T06:53:58;2.90;99.90
57026;DHT22;43961;52.940;6.834;2023-04-03T06:56:24;3.10;99.90
57026;DHT22;43961;52.940;6.834;2023-04-03T06:58:51;3.30;99.90
57026;DHT22;43961;52.940;6.834;2023-04-03T07:01:20;3.40;99.90
57026;DHT22;43961;52.940;6.834;2023-04-03T07:03:47;3.40;99.90
57026;DHT22;43961;52.940;6.834;2023-04-03T07:06:14;3.40;99.90
57026;DHT22;43961;52.940;6.834;2023-04-03T07:08:41;3.50;99.90
57026;DHT22;43961;52.940;6.834;2023-04-03T07:11:08;3.50;99.90
57026;DHT22;43961;52.940;6.834;2023-04-03T07:13:38;3.50;99.90
57026;DHT22;43961;52.940;6.834;2023-04-03T07:16:05;3.50;99.90
57026;DHT22;43961;52.940;6.834;2023-04-03T07:18:32;3.50;99.90
57026;DHT22;43961;52.940;6.834;2023-04-03T07:21:00;3.60;99.90
57026;DHT22;43961;52.940;6.834;2023-04-03T07:23:26;3.60;99.90
57026;DHT22;43961;52.940;6.834;2023-04-03T07:25:52;3.70;99.90
57026;DHT22;43961;52.940;6.834;2023-04-03T07:28:20;3.80;99.90
57026;DHT22;43961;52.940;6.834;2023-04-03T07:31:10;3.90;99.90
57026;DHT22;43961;52.940;6.834;2023-04-03T07:33:38;3.90;99.90
57026;DHT22;43961;52.940;6.834;2023-04-03T07:36:05;4.00;99.90
57026;DHT22;43961;52.940;6.834;2023-04-03T07:38:33;4.10;99.90
57026;DHT22;43961;52.940;6.834;2023-04-03T07:40:59;4.20;99.90
57026;DHT22;43961;52.940;6.834;2023-04-03T07:43:24;4.20;99.90
57026;DHT22;43961;52.940;6.834;2023-04-03T07:45:50;4.30;99.90
57026;DHT22;43961;52.940;6.834;2023-04-03T07:48:26;4.20;99.90
57026;DHT22;43961;52.940;6.834;2023-04-03T07:50:51;4.30;99.90
57026;DHT22;43961;52.940;6.834;2023-04-03T07:53:18;4.30;99.90
57026;DHT22;43961;52.940;6.834;2023-04-03T07:55:46;4.40;99.90
57026;DHT22;43961;52.940;6.834;2023-04-03T07:58:16;4.50;99.90
57026;DHT22;43961;52.940;6.834;2023-04-03T08:00:44;4.70;99.90
57026;DHT22;43961;52.940;6.834;2023-04-03T08:03:11;4.80;99.90
57026;DHT22;43961;52.940;6.834;2023-04-03T08:05:37;4.90;99.90
57026;DHT22;43961;52.940;6.834;2023-04-03T08:08:04;5.00;99.90
57026;DHT22;43961;52.940;6.834;2023-04-03T08:10:31;5.00;99.90
57026;DHT22;43961;52.940;6.834;2023-04-03T08:12:57;5.10;99.90
57026;DHT22;43961;52.940;6.834;2023-04-03T08:15:22;5.10;99.90
57026;DHT22;43961;52.940;6.834;2023-04-03T08:17:49;5.20;99.90
57026;DHT22;43961;52.940;6.834;2023-04-03T08:20:14;5.30;99.90
57026;DHT22;43961;52.940;6.834;2023-04-03T08:22:40;5.40;99.90
57026;DHT22;43961;52.940;6.834;2023-04-03T08:25:06;5.60;99.90
57026;DHT22;43961;52.940;6.834;2023-04-03T08:27:32;5.70;99.90
57026;DHT22;43961;52.940;6.834;2023-04-03T08:29:57;5.80;99.90
57026;DHT22;43961;52.940;6.834;2023-04-03T08:32:23;5.80;99.90
57026;DHT22;43961;52.940;6.834;2023-04-03T08:34:49;5.90;99.90
57026;DHT22;43961;52.940;6.834;2023-04-03T08:37:15;6.00;99.90
57026;DHT22;43961;52.940;6.834;2023-04-03T08:39:42;6.10;99.90
57026;DHT22;43961;52.940;6.834;2023-04-03T08:42:33;6.10;99.90
57026;DHT22;43961;52.940;6.834;2023-04-03T08:45:15;6.20;99.90
57026;DHT22;43961;52.940;6.834;2023-04-03T08:50:19;6.40;99.90
57026;DHT22;43961;52.940;6.834;2023-04-03T08:52:52;6.60;99.90
57026;DHT22;43961;52.940;6.834;2023-04-03T08:55:39;6.60;99.90
57026;DHT22;43961;52.940;6.834;2023-04-03T08:58:10;6.60;99.90
57026;DHT22;43961;52.940;6.834;2023-04-03T09:01:14;6.70;99.90
57026;DHT22;43961;52.940;6.834;2023-04-03T09:03:42;6.70;97.80
57026;DHT22;43961;52.940;6.834;2023-04-03T09:06:29;6.60;95.20
57026;DHT22;43961;52.940;6.834;2023-04-03T09:14:45;6.60;86.40
57026;DHT22;43961;52.940;6.834;2023-04-03T09:17:14;6.80;93.10
57026;DHT22;43961;52.940;6.834;2023-04-03T09:22:41;7.20;86.40
57026;DHT22;43961;52.940;6.834;2023-04-03T09:27:40;7.20;78.00
57026;DHT22;43961;52.940;6.834;2023-04-03T09:30:13;7.20;78.60
57026;DHT22;43961;52.940;6.834;2023-04-03T09:32:39;7.30;75.30
57026;DHT22;43961;52.940;6.834;2023-04-03T09:35:30;7.30;72.90
57026;DHT22;43961;52.940;6.834;2023-04-03T09:40:43;7.50;74.10
57026;DHT22;43961;52.940;6.834;2023-04-03T09:43:27;7.70;74.90
57026;DHT22;43961;52.940;6.834;2023-04-03T09:45:54;7.80;72.70
57026;DHT22;43961;52.940;6.834;2023-04-03T09:48:25;7.80;71.90
57026;DHT22;43961;52.940;6.834;2023-04-03T09:50:54;8.00;69.90
57026;DHT22;43961;52.940;6.834;2023-04-03T09:55:59;7.90;66.40
57026;DHT22;43961;52.940;6.834;2023-04-03T09:58:27;8.00;68.30
57026;DHT22;43961;52.940;6.834;2023-04-03T10:00:57;8.10;67.20
57026;DHT22;43961;52.940;6.834;2023-04-03T10:03:30;8.20;65.30
57026;DHT22;43961;52.940;6.834;2023-04-03T10:05:58;8.20;64.00
57026;DHT22;43961;52.940;6.834;2023-04-03T10:11:25;8.00;65.60
57026;DHT22;43961;52.940;6.834;2023-04-03T10:13:57;8.00;66.00
57026;DHT22;43961;52.940;6.834;2023-04-03T10:16:48;7.80;63.20
57026;DHT22;43961;52.940;6.834;2023-04-03T10:22:29;8.10;65.70
57026;DHT22;43961;52.940;6.834;2023-04-03T10:27:54;8.50;63.00
57026;DHT22;43961;52.940;6.834;2023-04-03T10:30:58;8.60;62.90
57026;DHT22;43961;52.940;6.834;2023-04-03T10:36:45;8.40;63.00
57026;DHT22;43961;52.940;6.834;2023-04-03T10:47:17;8.90;65.00
57026;DHT22;43961;52.940;6.834;2023-04-03T10:53:03;8.90;61.50
57026;DHT22;43961;52.940;6.834;2023-04-03T10:55:58;8.70;61.40
57026;DHT22;43961;52.940;6.834;2023-04-03T10:58:32;8.80;62.70
57026;DHT22;43961;52.940;6.834;2023-04-03T11:01:02;8.90;59.60
57026;DHT22;43961;52.940;6.834;2023-04-03T11:03:36;9.00;60.20
57026;DHT22;43961;52.940;6.834;2023-04-03T11:06:08;9.10;59.10
57026;DHT22;43961;52.940;6.834;2023-04-03T11:08:40;8.90;57.80
57026;DHT22;43961;52.940;6.834;2023-04-03T11:11:20;9.00;59.70
57026;DHT22;43961;52.940;6.834;2023-04-03T11:14:01;9.10;59.00
57026;DHT22;43961;52.940;6.834;2023-04-03T11:16:30;9.10;59.50
57026;DHT22;43961;52.940;6.834;2023-04-03T11:18:56;9.10;59.90
57026;DHT22;43961;52.940;6.834;2023-04-03T11:21:44;9.20;58.70
57026;DHT22;43961;52.940;6.834;2023-04-03T11:24:20;9.20;59.00
57026;DHT22;43961;52.940;6.834;2023-04-03T11:26:49;9.30;60.00
57026;DHT22;43961;52.940;6.834;2023-04-03T11:29:19;9.50;59.10
57026;DHT22;43961;52.940;6.834;2023-04-03T11:34:39;9.50;59.30
57026;DHT22;43961;52.940;6.834;2023-04-03T11:37:36;9.40;56.70
57026;DHT22;43961;52.940;6.834;2023-04-03T11:40:08;9.40;54.80
57026;DHT22;43961;52.940;6.834;2023-04-03T11:43:04;9.30;57.30
57026;DHT22;43961;52.940;6.834;2023-04-03T11:45:35;9.40;58.60
57026;DHT22;43961;52.940;6.834;2023-04-03T11:50:54;9.40;58.70
57026;DHT22;43961;52.940;6.834;2023-04-03T11:53:36;9.30;58.10
57026;DHT22;43961;52.940;6.834;2023-04-03T11:56:29;9.50;58.60
57026;DHT22;43961;52.940;6.834;2023-04-03T12:01:49;9.80;56.50
57026;DHT22;43961;52.940;6.834;2023-04-03T12:04:17;10.00;58.00
57026;DHT22;43961;52.940;6.834;2023-04-03T12:12:00;9.80;57.70
57026;DHT22;43961;52.940;6.834;2023-04-03T12:14:27;9.70;57.60
57026;DHT22;43961;52.940;6.834;2023-04-03T12:16:55;9.70;57.70
57026;DHT22;43961;52.940;6.834;2023-04-03T12:19:39;9.80;57.90
57026;DHT22;43961;52.940;6.834;2023-04-03T12:22:13;9.90;58.30
57026;DHT22;43961;52.940;6.834;2023-04-03T12:24:45;9.90;58.30
57026;DHT22;43961;52.940;6.834;2023-04-03T12:30:07;9.90;57.90
57026;DHT22;43961;52.940;6.834;2023-04-03T12:48:46;9.90;57.10
57026;DHT22;43961;52.940;6.834;2023-04-03T12:51:19;9.80;58.10
57026;DHT22;43961;52.940;6.834;2023-04-03T12:53:46;9.60;56.80
57026;DHT22;43961;52.940;6.834;2023-04-03T12:56:28;9.50;56.20
57026;DHT22;43961;52.940;6.834;2023-04-03T12:58:56;9.50;56.60
57026;DHT22;43961;52.940;6.834;2023-04-03T13:01:37;9.40;54.90
57026;DHT22;43961;52.940;6.834;2023-04-03T13:04:03;9.50;56.60
57026;DHT22;43961;52.940;6.834;2023-04-03T13:06:41;9.50;57.00
57026;DHT22;43961;52.940;6.834;2023-04-03T13:11:47;9.60;55.80
57026;DHT22;43961;52.940;6.834;2023-04-03T13:14:24;9.70;54.80
57026;DHT22;43961;52.940;6.834;2023-04-03T13:17:12;9.80;54.90
57026;DHT22;43961;52.940;6.834;2023-04-03T13:19:39;9.70;54.30
57026;DHT22;43961;52.940;6.834;2023-04-03T13:22:36;9.60;57.20
57026;DHT22;43961;52.940;6.834;2023-04-03T13:25:13;9.70;55.40
57026;DHT22;43961;52.940;6.834;2023-04-03T13:27:39;9.70;56.40
57026;DHT22;43961;52.940;6.834;2023-04-03T13:30:21;9.70;55.80
57026;DHT22;43961;52.940;6.834;2023-04-03T13:32:48;9.80;57.20
57026;DHT22;43961;52.940;6.834;2023-04-03T13:38:03;9.80;58.00
57026;DHT22;43961;52.940;6.834;2023-04-03T13:40:29;9.70;58.20
57026;DHT22;43961;52.940;6.834;2023-04-03T13:43:04;9.70;57.80
57026;DHT22;43961;52.940;6.834;2023-04-03T13:45:32;9.90;56.10
57026;DHT22;43961;52.940;6.834;2023-04-03T13:48:38;9.80;55.90
57026;DHT22;43961;52.940;6.834;2023-04-03T13:51:18;9.80;54.40
57026;DHT22;43961;52.940;6.834;2023-04-03T13:56:36;9.90;56.90
57026;DHT22;43961;52.940;6.834;2023-04-03T14:04:45;9.80;57.20
57026;DHT22;43961;52.940;6.834;2023-04-03T14:07:12;9.70;57.70
57026;DHT22;43961;52.940;6.834;2023-04-03T14:09:37;9.60;58.40
57026;DHT22;43961;52.940;6.834;2023-04-03T14:12:28;9.60;59.10
57026;DHT22;43961;52.940;6.834;2023-04-03T14:14:55;9.60;56.60
57026;DHT22;43961;52.940;6.834;2023-04-03T14:17:24;9.60;57.50
57026;DHT22;43961;52.940;6.834;2023-04-03T14:19:51;9.40;55.90
57026;DHT22;43961;52.940;6.834;2023-04-03T14:22:21;9.60;56.10
57026;DHT22;43961;52.940;6.834;2023-04-03T14:24:48;9.60;56.90
57026;DHT22;43961;52.940;6.834;2023-04-03T14:27:28;9.60;58.00
57026;DHT22;43961;52.940;6.834;2023-04-03T14:29:56;9.70;56.90
57026;DHT22;43961;52.940;6.834;2023-04-03T14:32:24;9.70;56.90
57026;DHT22;43961;52.940;6.834;2023-04-03T14:34:51;9.80;57.00
57026;DHT22;43961;52.940;6.834;2023-04-03T14:37:21;9.80;54.50
57026;DHT22;43961;52.940;6.834;2023-04-03T14:39:49;9.70;55.00
57026;DHT22;43961;52.940;6.834;2023-04-03T14:42:18;9.70;56.00
57026;DHT22;43961;52.940;6.834;2023-04-03T14:44:45;9.70;56.30
57026;DHT22;43961;52.940;6.834;2023-04-03T14:47:12;9.70;55.70
57026;DHT22;43961;52.940;6.834;2023-04-03T14:49:39;9.70;55.60
57026;DHT22;43961;52.940;6.834;2023-04-03T14:52:06;9.70;55.10
57026;DHT22;43961;52.940;6.834;2023-04-03T14:54:31;9.70;54.80
57026;DHT22;43961;52.940;6.834;2023-04-03T14:56:59;9.60;55.20
57026;DHT22;43961;52.940;6.834;2023-04-03T14:59:27;9.50;55.60
57026;DHT22;43961;52.940;6.834;2023-04-03T15:01:53;9.50;55.50
57026;DHT22;43961;52.940;6.834;2023-04-03T15:04:20;9.60;56.10
57026;DHT22;43961;52.940;6.834;2023-04-03T15:06:47;9.50;55.70
57026;DHT22;43961;52.940;6.834;2023-04-03T15:09:22;9.50;55.80
57026;DHT22;43961;52.940;6.834;2023-04-03T15:11:49;9.50;57.40
57026;DHT22;43961;52.940;6.834;2023-04-03T15:14:16;9.50;57.50
57026;DHT22;43961;52.940;6.834;2023-04-03T15:16:41;9.50;55.50
57026;DHT22;43961;52.940;6.834;2023-04-03T15:19:07;9.30;55.90
57026;DHT22;43961;52.940;6.834;2023-04-03T15:21:33;9.40;56.60
57026;DHT22;43961;52.940;6.834;2023-04-03T15:23:59;9.40;56.50
57026;DHT22;43961;52.940;6.834;2023-04-03T15:26:25;9.30;57.20
57026;DHT22;43961;52.940;6.834;2023-04-03T15:28:51;9.40;56.70
57026;DHT22;43961;52.940;6.834;2023-04-03T15:31:16;9.30;55.70
57026;DHT22;43961;52.940;6.834;2023-04-03T15:33:42;9.30;57.10
57026;DHT22;43961;52.940;6.834;2023-04-03T15:36:08;9.30;57.20
57026;DHT22;43961;52.940;6.834;2023-04-03T15:38:34;9.30;57.60
57026;DHT22;43961;52.940;6.834;2023-04-03T15:41:00;9.30;57.80
57026;DHT22;43961;52.940;6.834;2023-04-03T15:43:26;9.20;57.10
57026;DHT22;43961;52.940;6.834;2023-04-03T15:45:56;9.20;56.80
57026;DHT22;43961;52.940;6.834;2023-04-03T15:48:23;9.20;56.10
57026;DHT22;43961;52.940;6.834;2023-04-03T15:50:49;9.20;56.40
57026;DHT22;43961;52.940;6.834;2023-04-03T15:53:16;9.20;56.20
57026;DHT22;43961;52.940;6.834;2023-04-03T15:55:42;9.10;57.10
57026;DHT22;43961;52.940;6.834;2023-04-03T15:58:08;9.10;57.40
57026;DHT22;43961;52.940;6.834;2023-04-03T16:00:35;9.10;57.50
57026;DHT22;43961;52.940;6.834;2023-04-03T16:03:08;9.10;57.40
57026;DHT22;43961;52.940;6.834;2023-04-03T16:05:36;9.10;56.70
57026;DHT22;43961;52.940;6.834;2023-04-03T16:08:03;9.00;57.10
57026;DHT22;43961;52.940;6.834;2023-04-03T16:10:29;8.90;56.30
57026;DHT22;43961;52.940;6.834;2023-04-03T16:12:54;8.80;56.20
57026;DHT22;43961;52.940;6.834;2023-04-03T16:15:21;8.80;57.00
57026;DHT22;43961;52.940;6.834;2023-04-03T16:17:47;8.80;57.10
57026;DHT22;43961;52.940;6.834;2023-04-03T16:20:14;8.80;57.50
57026;DHT22;43961;52.940;6.834;2023-04-03T16:22:40;8.70;57.00
57026;DHT22;43961;52.940;6.834;2023-04-03T16:25:07;8.70;57.30
57026;DHT22;43961;52.940;6.834;2023-04-03T16:27:33;8.70;57.50
57026;DHT22;43961;52.940;6.834;2023-04-03T16:29:59;8.50;56.60
57026;DHT22;43961;52.940;6.834;2023-04-03T16:32:27;8.50;56.90
57026;DHT22;43961;52.940;6.834;2023-04-03T16:34:54;8.60;57.50
57026;DHT22;43961;52.940;6.834;2023-04-03T16:37:20;8.60;58.20
57026;DHT22;43961;52.940;6.834;2023-04-03T16:39:46;8.50;58.00
57026;DHT22;43961;52.940;6.834;2023-04-03T16:42:12;8.50;57.60
57026;DHT22;43961;52.940;6.834;2023-04-03T16:44:38;8.40;57.70
57026;DHT22;43961;52.940;6.834;2023-04-03T16:47:05;8.40;58.70
57026;DHT22;43961;52.940;6.834;2023-04-03T16:49:31;8.40;58.30
57026;DHT22;43961;52.940;6.834;2023-04-03T16:52:01;8.40;58.80
57026;DHT22;43961;52.940;6.834;2023-04-03T16:54:27;8.40;59.60
57026;DHT22;43961;52.940;6.834;2023-04-03T16:56:53;8.30;58.90
57026;DHT22;43961;52.940;6.834;2023-04-03T16:59:19;8.30;59.70
57026;DHT22;43961;52.940;6.834;2023-04-03T17:01:45;8.20;59.10
57026;DHT22;43961;52.940;6.834;2023-04-03T17:04:10;8.20;60.00
57026;DHT22;43961;52.940;6.834;2023-04-03T17:06:36;8.10;60.40
57026;DHT22;43961;52.940;6.834;2023-04-03T17:09:02;8.00;60.40
57026;DHT22;43961;52.940;6.834;2023-04-03T17:11:29;7.90;60.80
57026;DHT22;43961;52.940;6.834;2023-04-03T17:13:55;7.90;61.20
57026;DHT22;43961;52.940;6.834;2023-04-03T17:16:22;7.80;63.70
57026;DHT22;43961;52.940;6.834;2023-04-03T17:18:48;7.80;63.50
57026;DHT22;43961;52.940;6.834;2023-04-03T17:21:15;7.70;63.20
57026;DHT22;43961;52.940;6.834;2023-04-03T17:23:44;7.60;62.90
57026;DHT22;43961;52.940;6.834;2023-04-03T17:26:09;7.60;64.20